logo
Search for airport 
image banner adimage banner adimage banner ad
image banner ad

YCLOV - Cloverdale

Located in Victoria Valley, Australia

ICAO - , IATA -

Data provided by Airmate  

General information

Coordinates: S42°17'40" E146°39'52"
Elevation is 2145 feet MSL.
Magnetic variation is 15° East
View others Airports in Tasmania

Operational data

Special qualification required
Current time UTC:
Current local time:
Weather at : - ( 0 km )
METAR: LMML 240745Z 08010KT CAVOK 25/12 Q1017 NOSIG
View NOTAMs / SUP AIP / TFR affecting this airport [VIEW]
Communications frequencies: [VIEW]

Runways:

RWY identifierQFULength (ft)Width (ft)SurfaceLDA (ft)
10119°1889142GRAS
28299°1889142GRAS

Airport contact information

Address: Victoria Valley Australia

Satellite view of YCLOV